Time;durP1;ratioP1;P1;durP2;ratioP2;P2;SDS_P1;SDS_P2;PMS_P1;PMS_P2;Temp;Humidity;BMP_temperature;BMP_pressure;BME280_temperature;BME280_humidity;BME280_pressure;Samples;Min_cycle;Max_cycle;Signal;HPM_P1;HPM_P2
2022/08/31 00:05:29;;;;;;;;;;;17.50;94.00;;;;;;5094284;28;19919;-72
2022/08/31 00:07:55;;;;;;;;;;;17.60;94.10;;;;;;5092832;28;20470;-74
2022/08/31 00:10:26;;;;;;;;;;;17.70;93.60;;;;;;5092855;28;19908;-75
2022/08/31 00:12:53;;;;;;;;;;;17.80;93.70;;;;;;5092709;28;19912;-75
2022/08/31 00:15:21;;;;;;;;;;;17.90;93.70;;;;;;5092938;28;19908;-75
2022/08/31 00:17:48;;;;;;;;;;;18.00;93.80;;;;;;5092706;28;19912;-73
2022/08/31 00:20:16;;;;;;;;;;;18.10;93.40;;;;;;5092781;28;20069;-74
2022/08/31 00:22:43;;;;;;;;;;;18.10;93.30;;;;;;5092848;28;19956;-74
2022/08/31 00:25:10;;;;;;;;;;;18.30;93.50;;;;;;5092609;28;19994;-74
2022/08/31 00:27:36;;;;;;;;;;;18.30;93.20;;;;;;5092779;28;19912;-74
2022/08/31 00:30:04;;;;;;;;;;;18.30;93.30;;;;;;5092544;28;19916;-74
2022/08/31 00:32:30;;;;;;;;;;;18.40;93.00;;;;;;5092803;28;19919;-72
2022/08/31 00:34:57;;;;;;;;;;;18.40;92.90;;;;;;5092592;28;19912;-74
2022/08/31 00:37:24;;;;;;;;;;;18.50;92.70;;;;;;5091756;28;20443;-72
2022/08/31 00:39:51;;;;;;;;;;;18.40;93.20;;;;;;5092264;28;19956;-73
2022/08/31 00:42:22;;;;;;;;;;;18.40;93.30;;;;;;5092920;28;20380;-74
2022/08/31 00:44:48;;;;;;;;;;;18.40;93.00;;;;;;5092684;28;19908;-73
2022/08/31 00:47:15;;;;;;;;;;;18.40;93.00;;;;;;5074498;28;19916;-73
2022/08/31 00:49:43;;;;;;;;;;;18.50;93.10;;;;;;5074891;28;19951;-73
2022/08/31 00:52:36;;;;;;;;;;;18.50;93.20;;;;;;5073800;28;19908;-72
2022/08/31 00:55:09;;;;;;;;;;;18.60;93.20;;;;;;5036055;28;19917;-74
2022/08/31 00:57:37;;;;;;;;;;;18.70;93.10;;;;;;5091559;28;19915;-73
2022/08/31 01:00:06;;;;;;;;;;;18.70;92.80;;;;;;5092451;28;19920;-72
2022/08/31 01:02:33;;;;;;;;;;;18.80;93.00;;;;;;5091716;28;19953;-72
2022/08/31 01:04:59;;;;;;;;;;;18.90;93.00;;;;;;5092590;28;19908;-72
2022/08/31 01:07:26;;;;;;;;;;;19.00;92.70;;;;;;5091445;28;20280;-73
2022/08/31 01:09:53;;;;;;;;;;;19.10;92.90;;;;;;5074049;28;20307;-73
2022/08/31 01:12:20;;;;;;;;;;;19.20;93.00;;;;;;5092220;28;19934;-73
2022/08/31 01:14:47;;;;;;;;;;;19.30;92.70;;;;;;5092974;28;19965;-73
2022/08/31 01:17:16;;;;;;;;;;;19.30;92.70;;;;;;5092113;28;19908;-73
2022/08/31 01:19:42;;;;;;;;;;;19.30;92.80;;;;;;5092658;28;19926;-72
2022/08/31 01:22:18;;;;;;;;;;;19.30;93.00;;;;;;5092831;28;19912;-71
2022/08/31 01:24:45;;;;;;;;;;;19.40;92.90;;;;;;5092947;28;20062;-73
2022/08/31 01:27:13;;;;;;;;;;;19.50;92.90;;;;;;5091559;28;19908;-73
2022/08/31 01:29:40;;;;;;;;;;;19.50;93.20;;;;;;5092350;28;20304;-73
2022/08/31 01:32:07;;;;;;;;;;;19.60;93.40;;;;;;5091485;28;19908;-73
2022/08/31 01:34:34;;;;;;;;;;;19.70;93.00;;;;;;5091364;28;19913;-74
2022/08/31 01:37:01;;;;;;;;;;;19.90;93.00;;;;;;5091359;28;20610;-75
2022/08/31 01:39:28;;;;;;;;;;;20.00;92.90;;;;;;5090513;28;20288;-73
2022/08/31 01:41:54;;;;;;;;;;;20.20;92.80;;;;;;5090848;28;19920;-72
2022/08/31 01:44:22;;;;;;;;;;;20.50;92.90;;;;;;5090296;28;19919;-72
2022/08/31 01:46:49;;;;;;;;;;;20.60;92.60;;;;;;5073731;28;19986;-72
2022/08/31 01:49:17;;;;;;;;;;;20.80;92.30;;;;;;5091186;28;19912;-74
2022/08/31 01:51:44;;;;;;;;;;;21.00;92.30;;;;;;5091959;28;19919;-73
2022/08/31 01:54:11;;;;;;;;;;;21.10;91.80;;;;;;5091478;28;19916;-72
2022/08/31 01:56:39;;;;;;;;;;;21.20;92.30;;;;;;5091730;28;19908;-73
2022/08/31 01:59:07;;;;;;;;;;;21.40;91.90;;;;;;5091138;28;19984;-71
2022/08/31 02:01:39;;;;;;;;;;;21.40;92.10;;;;;;5091149;28;20307;-72
2022/08/31 02:04:07;;;;;;;;;;;21.50;92.30;;;;;;5090955;28;19919;-72
2022/08/31 02:06:34;;;;;;;;;;;21.70;92.60;;;;;;5092080;28;19909;-72
2022/08/31 02:09:01;;;;;;;;;;;21.90;91.70;;;;;;5091008;28;20253;-72
2022/08/31 02:11:29;;;;;;;;;;;22.10;91.20;;;;;;5092183;28;19912;-73
2022/08/31 02:13:56;;;;;;;;;;;22.10;91.30;;;;;;5090539;28;19931;-74
2022/08/31 02:16:23;;;;;;;;;;;22.20;91.20;;;;;;5091226;28;19915;-73
2022/08/31 02:18:50;;;;;;;;;;;22.10;91.10;;;;;;5091241;28;19920;-72
2022/08/31 02:21:17;;;;;;;;;;;22.00;91.40;;;;;;5092035;28;19916;-71
2022/08/31 02:23:44;;;;;;;;;;;22.00;91.50;;;;;;5090802;28;19912;-72
2022/08/31 02:26:10;;;;;;;;;;;22.10;91.60;;;;;;5090198;28;19912;-72
2022/08/31 02:28:37;;;;;;;;;;;22.10;91.70;;;;;;5090968;28;19908;-72
2022/08/31 02:31:04;;;;;;;;;;;22.00;91.70;;;;;;5091487;28;19916;-73
2022/08/31 02:33:31;;;;;;;;;;;22.00;91.70;;;;;;5091480;28;19999;-72
2022/08/31 02:35:57;;;;;;;;;;;21.90;91.90;;;;;;5091384;28;19909;-72
2022/08/31 02:38:24;;;;;;;;;;;21.80;92.00;;;;;;5091063;28;19920;-73
2022/08/31 02:40:51;;;;;;;;;;;21.60;92.30;;;;;;5091776;28;19909;-73
2022/08/31 02:43:18;;;;;;;;;;;21.30;93.60;;;;;;5091394;28;20379;-73
2022/08/31 02:45:44;;;;;;;;;;;21.10;94.60;;;;;;5091463;28;19913;-72
2022/08/31 02:48:11;;;;;;;;;;;20.90;94.90;;;;;;5090783;28;19935;-72
2022/08/31 02:50:42;;;;;;;;;;;20.70;95.30;;;;;;5091185;28;19944;-72
2022/08/31 02:53:09;;;;;;;;;;;20.60;95.40;;;;;;5089653;28;19920;-72
2022/08/31 02:55:36;;;;;;;;;;;20.60;95.70;;;;;;5091162;28;19912;-72
2022/08/31 02:58:04;;;;;;;;;;;20.80;95.50;;;;;;5090129;28;19931;-76
2022/08/31 03:00:31;;;;;;;;;;;21.10;94.40;;;;;;5073029;28;19919;-74
2022/08/31 03:02:58;;;;;;;;;;;21.10;94.20;;;;;;5093453;28;19908;-74
2022/08/31 03:05:25;;;;;;;;;;;21.70;94.00;;;;;;5094724;28;19995;-74
2022/08/31 03:07:52;;;;;;;;;;;22.80;92.80;;;;;;5094175;28;19912;-73
2022/08/31 03:10:20;;;;;;;;;;;23.80;91.30;;;;;;5094201;28;19920;-73
2022/08/31 03:12:50;;;;;;;;;;;24.70;90.20;;;;;;5075843;28;19916;-73
2022/08/31 03:15:18;;;;;;;;;;;24.50;89.20;;;;;;5095402;28;19908;-73
2022/08/31 03:17:44;;;;;;;;;;;24.00;90.00;;;;;;5095019;28;19908;-74
2022/08/31 03:20:11;;;;;;;;;;;23.30;90.30;;;;;;5094577;28;19959;-74
2022/08/31 03:22:38;;;;;;;;;;;22.70;91.30;;;;;;5094443;28;19916;-72
2022/08/31 03:25:06;;;;;;;;;;;21.90;92.60;;;;;;5094515;28;19916;-75
2022/08/31 03:27:33;;;;;;;;;;;21.40;93.60;;;;;;5094238;28;20316;-73
2022/08/31 03:30:00;;;;;;;;;;;21.20;94.00;;;;;;5093848;28;19973;-74
2022/08/31 03:32:26;;;;;;;;;;;21.50;93.90;;;;;;5095090;28;20346;-73
2022/08/31 03:34:56;;;;;;;;;;;22.40;92.50;;;;;;5076508;28;19918;-74
2022/08/31 03:37:24;;;;;;;;;;;23.30;91.10;;;;;;5094553;28;19904;-75
2022/08/31 03:39:50;;;;;;;;;;;24.20;89.60;;;;;;5076541;28;19916;-73
2022/08/31 03:42:17;;;;;;;;;;;25.20;87.30;;;;;;5094581;28;19912;-74
2022/08/31 03:44:44;;;;;;;;;;;25.90;86.50;;;;;;5094359;28;19960;-74
2022/08/31 03:47:10;;;;;;;;;;;26.50;84.60;;;;;;5094015;28;19912;-74
2022/08/31 03:49:37;;;;;;;;;;;27.00;82.80;;;;;;5093839;28;20399;-75
2022/08/31 03:52:04;;;;;;;;;;;27.10;81.70;;;;;;5094422;28;20284;-74
2022/08/31 03:54:31;;;;;;;;;;;27.10;82.10;;;;;;5094704;28;19909;-76
2022/08/31 03:56:57;;;;;;;;;;;27.30;81.00;;;;;;5093859;28;19916;-74
2022/08/31 03:59:24;;;;;;;;;;;27.20;81.20;;;;;;5094500;28;19916;-72
2022/08/31 04:01:51;;;;;;;;;;;26.70;81.40;;;;;;5093934;28;19914;-75
2022/08/31 04:04:17;;;;;;;;;;;25.80;84.50;;;;;;5094413;28;19960;-75
2022/08/31 04:06:44;;;;;;;;;;;25.80;86.00;;;;;;5094116;28;19968;-75
2022/08/31 04:09:11;;;;;;;;;;;26.20;85.80;;;;;;5093714;28;19957;-75
2022/08/31 04:11:41;;;;;;;;;;;26.70;83.80;;;;;;5094396;28;20323;-78
2022/08/31 04:14:08;;;;;;;;;;;26.70;83.60;;;;;;5093807;28;19912;-76
2022/08/31 04:16:35;;;;;;;;;;;26.30;86.10;;;;;;5093776;28;19912;-74
2022/08/31 04:19:03;;;;;;;;;;;25.60;87.70;;;;;;5093422;28;19920;-74
2022/08/31 04:21:30;;;;;;;;;;;24.10;90.50;;;;;;5093594;28;19916;-75
2022/08/31 04:23:57;;;;;;;;;;;23.30;92.80;;;;;;5093651;28;19955;-73
2022/08/31 04:26:25;;;;;;;;;;;22.80;92.90;;;;;;5093270;28;19912;-73
2022/08/31 04:28:52;;;;;;;;;;;22.20;93.80;;;;;;5092999;28;19912;-73
2022/08/31 04:31:19;;;;;;;;;;;21.60;95.60;;;;;;5093176;28;20368;-74
2022/08/31 04:33:46;;;;;;;;;;;21.50;97.30;;;;;;5075252;28;19908;-76
2022/08/31 04:36:14;;;;;;;;;;;21.70;97.10;;;;;;5093340;28;19956;-74
2022/08/31 04:38:45;;;;;;;;;;;21.80;98.20;;;;;;5093251;28;19920;-76
2022/08/31 04:41:13;;;;;;;;;;;21.80;97.30;;;;;;5075434;28;20387;-75
2022/08/31 04:43:49;;;;;;;;;;;21.60;97.20;;;;;;5093778;28;19912;-75
2022/08/31 04:46:16;;;;;;;;;;;21.40;96.90;;;;;;5093082;28;19919;-73
2022/08/31 04:48:43;;;;;;;;;;;21.10;97.50;;;;;;5093361;28;20371;-75
2022/08/31 04:51:20;;;;;;;;;;;21.00;97.50;;;;;;5093554;28;19908;-75
2022/08/31 04:53:47;;;;;;;;;;;20.70;97.30;;;;;;5092943;28;20249;-73
2022/08/31 04:56:15;;;;;;;;;;;20.40;97.80;;;;;;5092486;28;20275;-73
2022/08/31 04:58:46;;;;;;;;;;;20.30;98.30;;;;;;5092555;28;19920;-73
2022/08/31 05:01:14;;;;;;;;;;;20.20;98.60;;;;;;5092761;28;19908;-73
2022/08/31 05:03:41;;;;;;;;;;;20.20;98.40;;;;;;5092587;28;19916;-71
2022/08/31 05:06:11;;;;;;;;;;;20.20;98.20;;;;;;5092798;28;19934;-71
2022/08/31 05:08:38;;;;;;;;;;;20.10;98.20;;;;;;5092008;28;20352;-72
2022/08/31 05:11:09;;;;;;;;;;;20.10;98.60;;;;;;5075037;28;19915;-73
2022/08/31 05:13:39;;;;;;;;;;;20.00;98.80;;;;;;5092086;28;19931;-72
2022/08/31 05:16:06;;;;;;;;;;;20.00;99.20;;;;;;5091077;28;19913;-73
2022/08/31 05:18:33;;;;;;;;;;;20.10;99.10;;;;;;5091149;28;20326;-72
2022/08/31 05:21:10;;;;;;;;;;;20.00;99.20;;;;;;5091828;28;19981;-72
2022/08/31 05:23:37;;;;;;;;;;;19.90;98.90;;;;;;5090948;28;20485;-74
2022/08/31 05:26:04;;;;;;;;;;;19.60;99.40;;;;;;5086497;28;20511;-73
2022/08/31 05:28:32;;;;;;;;;;;19.40;99.90;;;;;;5091036;28;20432;-73
2022/08/31 05:30:59;;;;;;;;;;;19.40;99.80;;;;;;5073306;28;20372;-73
2022/08/31 05:33:28;;;;;;;;;;;19.60;99.50;;;;;;5091811;28;19962;-73
2022/08/31 05:35:55;;;;;;;;;;;19.80;99.40;;;;;;5091045;28;19922;-74
2022/08/31 05:38:21;;;;;;;;;;;19.90;98.60;;;;;;5091959;28;19909;-74
2022/08/31 05:40:52;;;;;;;;;;;19.90;98.40;;;;;;5092504;28;19939;-75
2022/08/31 05:43:18;;;;;;;;;;;20.00;98.60;;;;;;5091095;28;19919;-74
2022/08/31 05:45:45;;;;;;;;;;;19.90;98.20;;;;;;5090548;28;20280;-72
2022/08/31 05:48:12;;;;;;;;;;;19.70;98.20;;;;;;5081751;28;19913;-73
2022/08/31 05:50:38;;;;;;;;;;;19.70;98.20;;;;;;5087469;28;20012;-73
2022/08/31 05:53:05;;;;;;;;;;;19.40;98.80;;;;;;5092156;28;19952;-72
2022/08/31 05:55:32;;;;;;;;;;;19.30;99.10;;;;;;5092196;28;19916;-73
2022/08/31 05:57:59;;;;;;;;;;;19.20;99.20;;;;;;5092478;28;19912;-73
2022/08/31 06:00:26;;;;;;;;;;;19.30;99.10;;;;;;5092742;28;19916;-72
2022/08/31 06:02:52;;;;;;;;;;;19.30;99.00;;;;;;5091828;28;19914;-73
2022/08/31 06:05:19;;;;;;;;;;;19.20;99.40;;;;;;5068989;28;20371;-74
2022/08/31 06:07:54;;;;;;;;;;;19.20;99.40;;;;;;5089961;28;19915;-77
2022/08/31 06:10:21;;;;;;;;;;;19.20;99.20;;;;;;5091919;28;19915;-73
2022/08/31 06:12:48;;;;;;;;;;;19.00;99.70;;;;;;5073882;28;19916;-72
2022/08/31 06:15:16;;;;;;;;;;;19.00;99.80;;;;;;5091021;28;19912;-73
2022/08/31 06:17:43;;;;;;;;;;;18.90;99.80;;;;;;5090552;28;19931;-76
2022/08/31 06:20:10;;;;;;;;;;;18.90;99.90;;;;;;5091205;28;20296;-72
2022/08/31 06:22:37;;;;;;;;;;;18.80;99.90;;;;;;5090793;28;19908;-73
2022/08/31 06:25:05;;;;;;;;;;;18.70;99.90;;;;;;5090503;28;19995;-73
2022/08/31 06:27:37;;;;;;;;;;;18.70;99.90;;;;;;5089913;28;19936;-80
2022/08/31 06:30:05;;;;;;;;;;;18.70;99.90;;;;;;5091359;28;19930;-72
2022/08/31 06:32:32;;;;;;;;;;;18.70;99.90;;;;;;5091678;28;19966;-74
2022/08/31 06:34:58;;;;;;;;;;;18.70;99.90;;;;;;5092886;28;19984;-76
2022/08/31 06:37:26;;;;;;;;;;;18.60;99.90;;;;;;5096588;28;19912;-74
2022/08/31 06:39:53;;;;;;;;;;;18.50;99.90;;;;;;5078570;28;19927;-76
2022/08/31 06:42:20;;;;;;;;;;;18.50;99.90;;;;;;5097077;28;19912;-73
2022/08/31 06:44:48;;;;;;;;;;;18.50;99.90;;;;;;5078959;28;19912;-77
2022/08/31 06:47:15;;;;;;;;;;;18.40;99.90;;;;;;5096077;28;19990;-77
2022/08/31 06:49:41;;;;;;;;;;;18.40;99.90;;;;;;5096832;28;20661;-80
2022/08/31 06:52:08;;;;;;;;;;;18.40;99.90;;;;;;5076912;28;19955;-78
2022/08/31 06:54:35;;;;;;;;;;;18.40;99.90;;;;;;5095155;28;19916;-83
2022/08/31 06:57:01;;;;;;;;;;;18.40;99.90;;;;;;5094280;28;20003;-82
2022/08/31 06:59:28;;;;;;;;;;;18.40;99.90;;;;;;5094970;28;20253;-73
2022/08/31 07:01:54;;;;;;;;;;;18.30;99.90;;;;;;5094728;28;19959;-76
2022/08/31 07:04:21;;;;;;;;;;;18.30;99.90;;;;;;5094791;28;20357;-76
2022/08/31 07:06:48;;;;;;;;;;;18.30;99.90;;;;;;5096319;28;19919;-76
2022/08/31 07:09:16;;;;;;;;;;;18.30;99.90;;;;;;5098421;28;19956;-82
2022/08/31 07:11:44;;;;;;;;;;;18.20;99.90;;;;;;5096952;28;19912;-79
2022/08/31 07:14:12;;;;;;;;;;;18.20;99.90;;;;;;5096212;28;19915;-79
2022/08/31 07:16:39;;;;;;;;;;;18.20;99.80;;;;;;5093761;28;19912;-77
2022/08/31 07:19:06;;;;;;;;;;;18.10;99.90;;;;;;5094551;28;19920;-77
2022/08/31 07:21:34;;;;;;;;;;;18.00;99.90;;;;;;5076203;28;20146;-76
2022/08/31 07:24:04;;;;;;;;;;;17.90;99.90;;;;;;5094135;28;20601;-76
2022/08/31 07:26:35;;;;;;;;;;;17.90;99.90;;;;;;5093425;28;19912;-75
2022/08/31 07:29:05;;;;;;;;;;;17.80;99.90;;;;;;5094614;28;19908;-73
2022/08/31 07:31:49;;;;;;;;;;;17.80;99.90;;;;;;5093588;28;20536;-76
2022/08/31 07:34:18;;;;;;;;;;;17.70;99.90;;;;;;5093217;28;19920;-73
2022/08/31 07:42:24;;;;;;;;;;;17.60;99.90;;;;;;5094240;28;19918;-78
2022/08/31 07:44:52;;;;;;;;;;;17.50;99.90;;;;;;5093839;28;19908;-77
2022/08/31 07:47:19;;;;;;;;;;;17.50;99.90;;;;;;5092882;28;19916;-78
2022/08/31 07:49:49;;;;;;;;;;;17.40;99.90;;;;;;5092965;28;19912;-77
2022/08/31 07:52:20;;;;;;;;;;;17.30;99.90;;;;;;5094289;28;19912;-77
2022/08/31 07:54:48;;;;;;;;;;;17.30;99.90;;;;;;5093836;28;19915;-75
2022/08/31 07:57:14;;;;;;;;;;;17.30;99.90;;;;;;5093662;28;19977;-77
2022/08/31 07:59:41;;;;;;;;;;;17.30;99.90;;;;;;5093522;28;19989;-77
2022/08/31 08:02:08;;;;;;;;;;;17.30;99.90;;;;;;5094804;28;19943;-75
2022/08/31 08:04:38;;;;;;;;;;;17.30;99.90;;;;;;5090910;28;20350;-75
2022/08/31 08:07:04;;;;;;;;;;;17.30;99.90;;;;;;5090083;28;19951;-73
2022/08/31 08:09:32;;;;;;;;;;;17.30;99.90;;;;;;5092757;28;19912;-77
2022/08/31 08:12:03;;;;;;;;;;;17.30;99.90;;;;;;5093082;28;21682;-73
2022/08/31 08:14:30;;;;;;;;;;;17.30;99.90;;;;;;5093180;28;19909;-76
2022/08/31 08:16:56;;;;;;;;;;;17.30;99.90;;;;;;5075900;28;20010;-78
2022/08/31 08:19:23;;;;;;;;;;;17.30;99.90;;;;;;5091842;28;19923;-73
2022/08/31 08:21:50;;;;;;;;;;;17.30;99.90;;;;;;5093618;28;19908;-74
2022/08/31 08:24:17;;;;;;;;;;;17.20;99.90;;;;;;5092992;28;20368;-75
2022/08/31 08:26:45;;;;;;;;;;;17.10;99.90;;;;;;5093428;28;19908;-78
2022/08/31 08:29:11;;;;;;;;;;;17.10;99.90;;;;;;5074715;28;19969;-76
2022/08/31 08:31:38;;;;;;;;;;;17.10;99.90;;;;;;5093180;28;19916;-72
2022/08/31 08:34:06;;;;;;;;;;;17.10;99.90;;;;;;5093618;28;19915;-74
2022/08/31 08:36:34;;;;;;;;;;;17.10;99.90;;;;;;5093134;28;19912;-77
2022/08/31 08:39:01;;;;;;;;;;;17.10;99.90;;;;;;5092628;28;19927;-73
2022/08/31 08:41:31;;;;;;;;;;;17.00;99.90;;;;;;5092887;28;20352;-77
2022/08/31 08:43:59;;;;;;;;;;;17.00;99.90;;;;;;5093400;28;20015;-76
2022/08/31 08:46:38;;;;;;;;;;;17.00;99.90;;;;;;5092475;28;20312;-72
2022/08/31 08:49:14;;;;;;;;;;;17.00;99.90;;;;;;5092080;28;19912;-73
2022/08/31 08:51:40;;;;;;;;;;;16.90;99.90;;;;;;5092655;28;19916;-73
2022/08/31 08:54:10;;;;;;;;;;;16.80;99.90;;;;;;5074679;28;19908;-73
2022/08/31 08:56:40;;;;;;;;;;;16.90;99.90;;;;;;5092776;28;19912;-75
2022/08/31 08:59:10;;;;;;;;;;;16.80;99.90;;;;;;5091109;28;19970;-73
2022/08/31 09:01:37;;;;;;;;;;;16.80;99.90;;;;;;5092244;28;19973;-73
2022/08/31 09:04:09;;;;;;;;;;;16.80;99.90;;;;;;5092662;28;19963;-73
2022/08/31 09:06:45;;;;;;;;;;;16.70;99.90;;;;;;5092536;28;20279;-73
2022/08/31 09:09:11;;;;;;;;;;;16.70;99.90;;;;;;5092286;28;19934;-74
2022/08/31 09:11:57;;;;;;;;;;;16.80;99.90;;;;;;5084103;28;19908;-75
2022/08/31 09:14:36;;;;;;;;;;;16.80;99.90;;;;;;5083211;28;19961;-77
2022/08/31 09:17:14;;;;;;;;;;;16.80;99.90;;;;;;5079871;28;19920;-77
2022/08/31 09:20:00;;;;;;;;;;;16.80;99.90;;;;;;5066417;28;19927;-74
2022/08/31 09:22:27;;;;;;;;;;;16.80;99.90;;;;;;5086591;28;20000;-74
2022/08/31 09:24:58;;;;;;;;;;;16.80;99.90;;;;;;5079915;28;19912;-78
2022/08/31 09:27:45;;;;;;;;;;;16.70;99.90;;;;;;5092110;28;19952;-75
2022/08/31 09:30:16;;;;;;;;;;;16.80;99.90;;;;;;5073888;28;19908;-77
2022/08/31 09:32:53;;;;;;;;;;;16.70;99.90;;;;;;5092472;28;19908;-75
2022/08/31 09:35:39;;;;;;;;;;;16.70;99.90;;;;;;5091341;28;19908;-78
2022/08/31 09:38:10;;;;;;;;;;;16.60;99.90;;;;;;5092281;28;19908;-75
2022/08/31 09:40:46;;;;;;;;;;;16.60;99.90;;;;;;5091731;28;19916;-76
2022/08/31 09:43:25;;;;;;;;;;;16.70;99.90;;;;;;5091126;28;19912;-73
2022/08/31 09:45:55;;;;;;;;;;;16.60;99.90;;;;;;5090154;28;20357;-76
2022/08/31 09:48:41;;;;;;;;;;;16.70;99.90;;;;;;5090995;28;19934;-75
2022/08/31 09:51:08;;;;;;;;;;;16.60;99.90;;;;;;5091603;28;19912;-76
2022/08/31 09:56:26;;;;;;;;;;;16.70;99.90;;;;;;5087323;28;20008;-73
2022/08/31 09:59:01;;;;;;;;;;;16.70;99.90;;;;;;5090514;28;20308;-74
2022/08/31 10:01:43;;;;;;;;;;;16.60;99.90;;;;;;5089393;28;19954;-73
2022/08/31 10:04:16;;;;;;;;;;;16.60;99.90;;;;;;5089488;28;19916;-73
2022/08/31 10:06:58;;;;;;;;;;;16.60;99.90;;;;;;5088830;28;20352;-75
2022/08/31 10:09:36;;;;;;;;;;;16.60;99.90;;;;;;5071765;28;19958;-75
2022/08/31 10:12:09;;;;;;;;;;;16.60;99.90;;;;;;5090491;28;19915;-73
2022/08/31 10:14:35;;;;;;;;;;;16.60;99.90;;;;;;5088882;28;19912;-74
2022/08/31 10:17:09;;;;;;;;;;;16.60;99.90;;;;;;5071641;28;19923;-73
2022/08/31 10:19:50;;;;;;;;;;;16.50;99.90;;;;;;5087660;28;19920;-73
2022/08/31 10:22:24;;;;;;;;;;;16.50;99.90;;;;;;5089684;28;20628;-74
2022/08/31 10:25:03;;;;;;;;;;;16.50;99.90;;;;;;5089891;28;19930;-75
2022/08/31 10:27:37;;;;;;;;;;;16.40;99.90;;;;;;5089880;28;19916;-74
2022/08/31 10:30:10;;;;;;;;;;;16.40;99.90;;;;;;5073726;28;19916;-74
2022/08/31 10:32:40;;;;;;;;;;;16.50;99.90;;;;;;5092158;28;19912;-74
2022/08/31 10:35:06;;;;;;;;;;;16.40;99.90;;;;;;5091828;28;19915;-73
2022/08/31 10:37:42;;;;;;;;;;;16.40;99.90;;;;;;5092068;28;20323;-74
2022/08/31 10:40:12;;;;;;;;;;;16.40;99.90;;;;;;5091696;28;19969;-73
2022/08/31 10:42:42;;;;;;;;;;;16.30;99.90;;;;;;5091774;28;19983;-73
2022/08/31 10:45:21;;;;;;;;;;;16.30;99.90;;;;;;5091188;28;20006;-74
2022/08/31 10:47:49;;;;;;;;;;;16.20;99.90;;;;;;5091484;28;19908;-73
2022/08/31 10:50:38;;;;;;;;;;;16.20;99.90;;;;;;5091330;28;19947;-74
2022/08/31 10:53:32;;;;;;;;;;;16.20;99.90;;;;;;5083721;28;20382;-74
2022/08/31 10:56:13;;;;;;;;;;;16.20;99.90;;;;;;5091330;28;19908;-76
2022/08/31 10:59:00;;;;;;;;;;;16.20;99.90;;;;;;5090556;28;19924;-75
2022/08/31 11:01:53;;;;;;;;;;;16.10;99.90;;;;;;5087515;28;19945;-73
2022/08/31 11:04:33;;;;;;;;;;;16.10;99.90;;;;;;5087153;28;19939;-73
2022/08/31 11:06:59;;;;;;;;;;;16.10;99.90;;;;;;5091291;28;20002;-73
2022/08/31 11:09:33;;;;;;;;;;;16.00;99.90;;;;;;5091370;28;19908;-74
2022/08/31 11:12:06;;;;;;;;;;;16.00;99.90;;;;;;5073348;28;19912;-74
2022/08/31 11:14:43;;;;;;;;;;;16.00;99.90;;;;;;5073090;28;19930;-76
2022/08/31 11:17:20;;;;;;;;;;;16.00;99.90;;;;;;5091538;28;19961;-74
2022/08/31 11:19:53;;;;;;;;;;;16.00;99.90;;;;;;5086500;28;19924;-76
2022/08/31 11:22:38;;;;;;;;;;;16.00;99.90;;;;;;5078434;28;19932;-75
2022/08/31 11:25:13;;;;;;;;;;;15.90;99.90;;;;;;5082143;28;19919;-74
2022/08/31 11:27:43;;;;;;;;;;;15.90;99.90;;;;;;5086423;28;19912;-75
2022/08/31 11:30:23;;;;;;;;;;;15.90;99.90;;;;;;5084981;28;19908;-75
2022/08/31 11:32:52;;;;;;;;;;;15.90;99.90;;;;;;5078740;28;19951;-75
2022/08/31 11:36:00;;;;;;;;;;;15.80;99.90;;;;;;5089094;28;20280;-76
2022/08/31 11:38:53;;;;;;;;;;;15.80;99.90;;;;;;5011466;28;20004;-75
2022/08/31 11:41:46;;;;;;;;;;;15.70;99.90;;;;;;4995491;28;20358;-72
2022/08/31 11:44:28;;;;;;;;;;;15.80;99.90;;;;;;5064116;28;19909;-75
2022/08/31 11:47:06;;;;;;;;;;;15.80;99.90;;;;;;5074738;28;19920;-76
2022/08/31 11:49:46;;;;;;;;;;;15.80;99.90;;;;;;5093908;28;19935;-75
2022/08/31 11:52:13;;;;;;;;;;;15.80;99.90;;;;;;5094926;28;20409;-74
2022/08/31 11:54:44;;;;;;;;;;;15.80;99.90;;;;;;5094894;28;20360;-73
2022/08/31 11:57:14;;;;;;;;;;;15.80;99.90;;;;;;5076528;28;19908;-73
2022/08/31 11:59:44;;;;;;;;;;;15.90;99.90;;;;;;5094188;28;20010;-75
2022/08/31 12:02:21;;;;;;;;;;;15.90;99.90;;;;;;5094608;28;20253;-75
2022/08/31 12:05:01;;;;;;;;;;;15.90;99.90;;;;;;5094172;28;19908;-75
2022/08/31 12:07:34;;;;;;;;;;;15.90;99.90;;;;;;5094106;28;20489;-74
2022/08/31 12:10:19;;;;;;;;;;;15.90;99.90;;;;;;5075992;28;19908;-75
2022/08/31 12:12:50;;;;;;;;;;;15.90;99.90;;;;;;5094048;28;19908;-73
2022/08/31 12:15:34;;;;;;;;;;;15.90;99.90;;;;;;5075815;28;19908;-74
2022/08/31 12:18:04;;;;;;;;;;;15.90;99.90;;;;;;5093920;28;20506;-74
2022/08/31 12:20:31;;;;;;;;;;;16.00;99.90;;;;;;5093635;28;19943;-74
2022/08/31 12:23:34;;;;;;;;;;;15.90;99.90;;;;;;5093905;28;19950;-74
2022/08/31 12:26:16;;;;;;;;;;;15.90;99.90;;;;;;5093065;28;19965;-73
2022/08/31 12:28:43;;;;;;;;;;;15.90;99.90;;;;;;5093619;28;20422;-74
2022/08/31 12:31:12;;;;;;;;;;;15.90;99.90;;;;;;5093640;28;19908;-74
2022/08/31 12:33:44;;;;;;;;;;;15.90;99.90;;;;;;5075531;28;19912;-74
2022/08/31 12:36:12;;;;;;;;;;;15.80;99.90;;;;;;5086411;28;20284;-74
2022/08/31 12:38:39;;;;;;;;;;;15.70;99.90;;;;;;5093568;28;20487;-74
2022/08/31 12:41:08;;;;;;;;;;;15.80;99.90;;;;;;5093765;28;19966;-74
2022/08/31 12:43:37;;;;;;;;;;;15.70;99.90;;;;;;5074846;28;20394;-74
2022/08/31 12:46:04;;;;;;;;;;;15.70;99.90;;;;;;5093339;28;19957;-74
2022/08/31 12:48:33;;;;;;;;;;;15.70;99.90;;;;;;5093523;28;19912;-74
2022/08/31 12:51:19;;;;;;;;;;;15.70;99.90;;;;;;5093310;28;19915;-74
2022/08/31 12:53:45;;;;;;;;;;;15.70;99.90;;;;;;5089753;28;19951;-73
2022/08/31 12:56:30;;;;;;;;;;;15.70;99.90;;;;;;5092193;28;19908;-74
2022/08/31 12:58:59;;;;;;;;;;;15.60;99.90;;;;;;5091109;28;19931;-74
2022/08/31 13:01:26;;;;;;;;;;;15.70;99.90;;;;;;5093445;28;19915;-73
2022/08/31 13:03:54;;;;;;;;;;;15.70;99.90;;;;;;5092565;28;20627;-74
2022/08/31 13:06:35;;;;;;;;;;;15.70;99.90;;;;;;5092921;28;19999;-75
2022/08/31 13:09:02;;;;;;;;;;;15.70;99.90;;;;;;5093045;28;19908;-74
2022/08/31 13:11:32;;;;;;;;;;;15.70;99.90;;;;;;5092982;28;19919;-73
2022/08/31 13:14:07;;;;;;;;;;;15.80;99.90;;;;;;5093177;28;19908;-75
2022/08/31 13:16:34;;;;;;;;;;;15.80;99.90;;;;;;5093278;28;19915;-74
2022/08/31 13:19:04;;;;;;;;;;;15.90;99.90;;;;;;5092617;28;19920;-75
2022/08/31 13:21:35;;;;;;;;;;;15.90;99.90;;;;;;5093428;28;19961;-74
2022/08/31 13:24:06;;;;;;;;;;;15.90;99.90;;;;;;5093100;28;19999;-73
2022/08/31 13:26:34;;;;;;;;;;;15.90;99.90;;;;;;5092879;28;19908;-74
2022/08/31 13:29:03;;;;;;;;;;;16.00;99.90;;;;;;5093306;28;19915;-74
2022/08/31 13:31:31;;;;;;;;;;;16.00;99.90;;;;;;5092476;28;20265;-73
2022/08/31 13:34:01;;;;;;;;;;;15.90;99.90;;;;;;5091844;28;19920;-74
2022/08/31 13:36:42;;;;;;;;;;;16.00;99.90;;;;;;5091073;28;19920;-74
2022/08/31 13:39:21;;;;;;;;;;;16.00;99.90;;;;;;5074168;28;19971;-73
2022/08/31 13:42:08;;;;;;;;;;;15.90;99.90;;;;;;5092954;28;20352;-74
2022/08/31 13:44:38;;;;;;;;;;;15.90;99.90;;;;;;5074363;28;19915;-73
2022/08/31 13:47:14;;;;;;;;;;;15.90;99.90;;;;;;5092492;28;19915;-73
2022/08/31 13:49:43;;;;;;;;;;;15.90;99.90;;;;;;5092536;28;20320;-72
2022/08/31 13:52:19;;;;;;;;;;;15.80;99.90;;;;;;5092359;28;20006;-74
2022/08/31 13:55:06;;;;;;;;;;;15.80;99.90;;;;;;5091365;28;19920;-74
2022/08/31 13:57:34;;;;;;;;;;;15.80;99.90;;;;;;5091618;28;19915;-73
2022/08/31 14:00:19;;;;;;;;;;;15.80;99.90;;;;;;5092198;28;19916;-74
2022/08/31 14:02:45;;;;;;;;;;;15.80;99.90;;;;;;5092678;28;19954;-73
2022/08/31 14:05:26;;;;;;;;;;;15.80;99.90;;;;;;5092041;28;19913;-74
2022/08/31 14:08:00;;;;;;;;;;;15.80;99.90;;;;;;5074006;28;19981;-73
2022/08/31 14:10:42;;;;;;;;;;;15.80;99.90;;;;;;5091951;28;20284;-73
2022/08/31 14:13:19;;;;;;;;;;;15.70;99.90;;;;;;5092677;28;20364;-73
2022/08/31 14:15:55;;;;;;;;;;;15.60;99.90;;;;;;5092234;28;19908;-73
2022/08/31 14:18:39;;;;;;;;;;;15.60;99.90;;;;;;5092408;28;19908;-73
2022/08/31 14:21:08;;;;;;;;;;;15.50;99.90;;;;;;5092472;28;19920;-74
2022/08/31 14:23:38;;;;;;;;;;;15.40;99.90;;;;;;5092445;28;19911;-73
2022/08/31 14:26:06;;;;;;;;;;;15.30;99.90;;;;;;5090784;28;19912;-74
2022/08/31 14:28:39;;;;;;;;;;;15.30;99.90;;;;;;5092249;28;19912;-74
2022/08/31 14:31:26;;;;;;;;;;;15.20;99.90;;;;;;5092520;28;19908;-76
2022/08/31 14:34:02;;;;;;;;;;;15.20;99.90;;;;;;5080423;28;19916;-75
2022/08/31 14:36:32;;;;;;;;;;;15.20;99.90;;;;;;5091894;28;19950;-75
2022/08/31 14:38:59;;;;;;;;;;;15.20;99.90;;;;;;5092222;28;20364;-74
2022/08/31 14:41:30;;;;;;;;;;;15.20;99.90;;;;;;5091787;28;19931;-74
2022/08/31 14:44:05;;;;;;;;;;;15.20;99.90;;;;;;5073985;28;19923;-73
2022/08/31 14:46:33;;;;;;;;;;;15.20;99.90;;;;;;5071699;28;20334;-74
2022/08/31 14:48:59;;;;;;;;;;;15.20;99.90;;;;;;5072102;28;19908;-74